sensor_id;sensor_type;location;lat;lon;timestamp;P1;durP1;ratioP1;P2;durP2;ratioP2
21758;SDS011;11041;50.854;20.580;2023-04-22T00:01:28;17.15;;;10.68;;
21758;SDS011;11041;50.854;20.580;2023-04-22T00:03:55;19.00;;;11.20;;
21758;SDS011;11041;50.854;20.580;2023-04-22T00:06:21;19.63;;;11.48;;
21758;SDS011;11041;50.854;20.580;2023-04-22T00:08:48;15.57;;;10.90;;
21758;SDS011;11041;50.854;20.580;2023-04-22T00:11:14;21.30;;;12.63;;
21758;SDS011;11041;50.854;20.580;2023-04-22T00:13:41;20.80;;;11.85;;
21758;SDS011;11041;50.854;20.580;2023-04-22T00:16:07;20.35;;;11.88;;
21758;SDS011;11041;50.854;20.580;2023-04-22T00:18:34;20.95;;;11.65;;
21758;SDS011;11041;50.854;20.580;2023-04-22T00:21:01;20.17;;;12.20;;
21758;SDS011;11041;50.854;20.580;2023-04-22T00:23:29;20.00;;;11.35;;
21758;SDS011;11041;50.854;20.580;2023-04-22T00:25:56;19.52;;;11.80;;
21758;SDS011;11041;50.854;20.580;2023-04-22T00:28:23;23.35;;;11.88;;
21758;SDS011;11041;50.854;20.580;2023-04-22T00:30:49;19.88;;;11.77;;
21758;SDS011;11041;50.854;20.580;2023-04-22T00:33:16;23.15;;;12.30;;
21758;SDS011;11041;50.854;20.580;2023-04-22T00:35:42;17.27;;;11.05;;
21758;SDS011;11041;50.854;20.580;2023-04-22T00:38:13;19.48;;;11.20;;
21758;SDS011;11041;50.854;20.580;2023-04-22T00:40:39;17.00;;;11.70;;
21758;SDS011;11041;50.854;20.580;2023-04-22T00:43:07;18.42;;;12.38;;
21758;SDS011;11041;50.854;20.580;2023-04-22T00:45:35;21.05;;;12.10;;
21758;SDS011;11041;50.854;20.580;2023-04-22T00:48:04;18.75;;;11.68;;
21758;SDS011;11041;50.854;20.580;2023-04-22T00:50:30;17.75;;;11.13;;
21758;SDS011;11041;50.854;20.580;2023-04-22T00:52:57;14.95;;;10.55;;
21758;SDS011;11041;50.854;20.580;2023-04-22T00:55:23;17.30;;;10.48;;
21758;SDS011;11041;50.854;20.580;2023-04-22T00:57:51;17.00;;;10.18;;
21758;SDS011;11041;50.854;20.580;2023-04-22T01:00:22;17.38;;;10.63;;
21758;SDS011;11041;50.854;20.580;2023-04-22T01:02:52;16.45;;;9.95;;
21758;SDS011;11041;50.854;20.580;2023-04-22T01:05:20;19.23;;;9.77;;
21758;SDS011;11041;50.854;20.580;2023-04-22T01:07:46;19.33;;;9.63;;
21758;SDS011;11041;50.854;20.580;2023-04-22T01:10:13;15.95;;;9.50;;
21758;SDS011;11041;50.854;20.580;2023-04-22T01:12:39;15.65;;;9.35;;
21758;SDS011;11041;50.854;20.580;2023-04-22T01:15:06;16.83;;;10.13;;
21758;SDS011;11041;50.854;20.580;2023-04-22T01:17:33;19.27;;;10.35;;
21758;SDS011;11041;50.854;20.580;2023-04-22T01:20:01;20.50;;;10.50;;
21758;SDS011;11041;50.854;20.580;2023-04-22T01:22:35;19.63;;;10.18;;
21758;SDS011;11041;50.854;20.580;2023-04-22T01:25:06;17.35;;;10.93;;
21758;SDS011;11041;50.854;20.580;2023-04-22T01:27:37;19.35;;;11.32;;
21758;SDS011;11041;50.854;20.580;2023-04-22T01:30:05;18.30;;;11.60;;
21758;SDS011;11041;50.854;20.580;2023-04-22T01:32:33;17.35;;;10.48;;
21758;SDS011;11041;50.854;20.580;2023-04-22T01:35:01;18.15;;;11.23;;
21758;SDS011;11041;50.854;20.580;2023-04-22T01:37:28;17.85;;;10.85;;
21758;SDS011;11041;50.854;20.580;2023-04-22T01:39:56;19.73;;;11.05;;
21758;SDS011;11041;50.854;20.580;2023-04-22T01:42:24;17.30;;;11.52;;
21758;SDS011;11041;50.854;20.580;2023-04-22T01:44:51;16.77;;;10.82;;
21758;SDS011;11041;50.854;20.580;2023-04-22T01:47:17;18.38;;;11.45;;
21758;SDS011;11041;50.854;20.580;2023-04-22T01:49:44;18.08;;;11.95;;
21758;SDS011;11041;50.854;20.580;2023-04-22T01:52:10;17.90;;;11.23;;
21758;SDS011;11041;50.854;20.580;2023-04-22T01:54:37;18.90;;;11.52;;
21758;SDS011;11041;50.854;20.580;2023-04-22T01:57:07;20.35;;;12.27;;
21758;SDS011;11041;50.854;20.580;2023-04-22T01:59:38;22.60;;;12.07;;
21758;SDS011;11041;50.854;20.580;2023-04-22T02:02:05;22.30;;;12.73;;
21758;SDS011;11041;50.854;20.580;2023-04-22T02:04:32;23.33;;;12.70;;
21758;SDS011;11041;50.854;20.580;2023-04-22T02:06:59;23.85;;;13.20;;
21758;SDS011;11041;50.854;20.580;2023-04-22T02:09:25;21.70;;;13.07;;
21758;SDS011;11041;50.854;20.580;2023-04-22T02:11:52;20.80;;;13.88;;
21758;SDS011;11041;50.854;20.580;2023-04-22T02:14:18;25.45;;;13.73;;
21758;SDS011;11041;50.854;20.580;2023-04-22T02:16:45;20.63;;;13.50;;
21758;SDS011;11041;50.854;20.580;2023-04-22T02:19:11;28.98;;;14.45;;
21758;SDS011;11041;50.854;20.580;2023-04-22T02:21:38;23.05;;;14.07;;
21758;SDS011;11041;50.854;20.580;2023-04-22T02:24:04;22.17;;;13.80;;
21758;SDS011;11041;50.854;20.580;2023-04-22T02:26:31;25.40;;;13.63;;
21758;SDS011;11041;50.854;20.580;2023-04-22T02:28:58;24.35;;;14.85;;
21758;SDS011;11041;50.854;20.580;2023-04-22T02:31:24;29.77;;;15.43;;
21758;SDS011;11041;50.854;20.580;2023-04-22T02:33:50;24.90;;;15.38;;
21758;SDS011;11041;50.854;20.580;2023-04-22T02:36:17;26.30;;;15.20;;
21758;SDS011;11041;50.854;20.580;2023-04-22T02:38:44;28.25;;;15.82;;
21758;SDS011;11041;50.854;20.580;2023-04-22T02:41:11;26.52;;;15.60;;
21758;SDS011;11041;50.854;20.580;2023-04-22T02:43:38;26.02;;;15.40;;
21758;SDS011;11041;50.854;20.580;2023-04-22T02:46:07;28.58;;;16.77;;
21758;SDS011;11041;50.854;20.580;2023-04-22T02:48:37;31.27;;;16.83;;
21758;SDS011;11041;50.854;20.580;2023-04-22T02:51:04;27.58;;;16.42;;
21758;SDS011;11041;50.854;20.580;2023-04-22T02:53:31;29.33;;;17.08;;
21758;SDS011;11041;50.854;20.580;2023-04-22T02:55:57;29.40;;;17.23;;
21758;SDS011;11041;50.854;20.580;2023-04-22T02:58:24;27.50;;;17.33;;
21758;SDS011;11041;50.854;20.580;2023-04-22T03:00:51;30.83;;;17.38;;
21758;SDS011;11041;50.854;20.580;2023-04-22T03:03:18;30.58;;;18.58;;
21758;SDS011;11041;50.854;20.580;2023-04-22T03:05:44;30.40;;;18.58;;
21758;SDS011;11041;50.854;20.580;2023-04-22T03:08:11;32.50;;;18.90;;
21758;SDS011;11041;50.854;20.580;2023-04-22T03:10:37;32.35;;;18.27;;
21758;SDS011;11041;50.854;20.580;2023-04-22T03:13:03;28.85;;;17.80;;
21758;SDS011;11041;50.854;20.580;2023-04-22T03:15:30;31.30;;;17.45;;
21758;SDS011;11041;50.854;20.580;2023-04-22T03:17:56;31.67;;;18.73;;
21758;SDS011;11041;50.854;20.580;2023-04-22T03:20:23;25.65;;;15.68;;
21758;SDS011;11041;50.854;20.580;2023-04-22T03:22:49;32.45;;;17.75;;
21758;SDS011;11041;50.854;20.580;2023-04-22T03:25:16;26.48;;;15.68;;
21758;SDS011;11041;50.854;20.580;2023-04-22T03:27:42;26.63;;;15.55;;
21758;SDS011;11041;50.854;20.580;2023-04-22T03:30:09;30.52;;;16.65;;
21758;SDS011;11041;50.854;20.580;2023-04-22T03:32:36;29.77;;;17.38;;
21758;SDS011;11041;50.854;20.580;2023-04-22T03:35:02;27.13;;;16.23;;
21758;SDS011;11041;50.854;20.580;2023-04-22T03:37:29;28.67;;;17.33;;
21758;SDS011;11041;50.854;20.580;2023-04-22T03:39:56;26.42;;;17.65;;
21758;SDS011;11041;50.854;20.580;2023-04-22T03:42:22;33.72;;;17.92;;
21758;SDS011;11041;50.854;20.580;2023-04-22T03:44:49;25.70;;;17.02;;
21758;SDS011;11041;50.854;20.580;2023-04-22T03:47:15;29.60;;;17.77;;
21758;SDS011;11041;50.854;20.580;2023-04-22T03:49:42;32.92;;;17.45;;
21758;SDS011;11041;50.854;20.580;2023-04-22T03:52:08;30.48;;;17.58;;
21758;SDS011;11041;50.854;20.580;2023-04-22T03:54:35;33.08;;;18.00;;
21758;SDS011;11041;50.854;20.580;2023-04-22T03:57:01;31.88;;;18.50;;
21758;SDS011;11041;50.854;20.580;2023-04-22T03:59:28;29.48;;;17.95;;
21758;SDS011;11041;50.854;20.580;2023-04-22T04:01:55;32.40;;;18.50;;
21758;SDS011;11041;50.854;20.580;2023-04-22T04:04:21;32.45;;;18.83;;
21758;SDS011;11041;50.854;20.580;2023-04-22T04:06:48;31.88;;;18.08;;
21758;SDS011;11041;50.854;20.580;2023-04-22T04:09:14;31.88;;;18.35;;
21758;SDS011;11041;50.854;20.580;2023-04-22T04:11:41;32.05;;;18.77;;
21758;SDS011;11041;50.854;20.580;2023-04-22T04:14:07;33.15;;;18.83;;
21758;SDS011;11041;50.854;20.580;2023-04-22T04:16:34;29.27;;;17.15;;
21758;SDS011;11041;50.854;20.580;2023-04-22T04:19:01;29.35;;;17.77;;
21758;SDS011;11041;50.854;20.580;2023-04-22T04:21:30;30.23;;;17.63;;
21758;SDS011;11041;50.854;20.580;2023-04-22T04:23:58;28.27;;;16.58;;
21758;SDS011;11041;50.854;20.580;2023-04-22T04:26:25;32.33;;;17.48;;
21758;SDS011;11041;50.854;20.580;2023-04-22T04:28:55;26.92;;;16.23;;
21758;SDS011;11041;50.854;20.580;2023-04-22T04:31:22;26.88;;;16.38;;
21758;SDS011;11041;50.854;20.580;2023-04-22T04:33:49;25.50;;;16.10;;
21758;SDS011;11041;50.854;20.580;2023-04-22T04:36:16;29.42;;;17.90;;
21758;SDS011;11041;50.854;20.580;2023-04-22T04:38:43;27.23;;;15.38;;
21758;SDS011;11041;50.854;20.580;2023-04-22T04:41:12;29.02;;;17.30;;
21758;SDS011;11041;50.854;20.580;2023-04-22T04:43:39;28.77;;;17.45;;
21758;SDS011;11041;50.854;20.580;2023-04-22T04:46:05;29.42;;;16.48;;
21758;SDS011;11041;50.854;20.580;2023-04-22T04:48:32;28.67;;;16.35;;
21758;SDS011;11041;50.854;20.580;2023-04-22T04:51:00;26.27;;;16.30;;
21758;SDS011;11041;50.854;20.580;2023-04-22T04:53:28;33.95;;;16.23;;
21758;SDS011;11041;50.854;20.580;2023-04-22T04:55:55;26.73;;;16.38;;
21758;SDS011;11041;50.854;20.580;2023-04-22T04:58:22;29.67;;;17.15;;
21758;SDS011;11041;50.854;20.580;2023-04-22T05:00:48;28.08;;;16.75;;
21758;SDS011;11041;50.854;20.580;2023-04-22T05:03:15;30.25;;;19.23;;
21758;SDS011;11041;50.854;20.580;2023-04-22T05:05:41;27.95;;;17.08;;
21758;SDS011;11041;50.854;20.580;2023-04-22T05:08:08;37.08;;;19.50;;
21758;SDS011;11041;50.854;20.580;2023-04-22T05:10:34;35.17;;;20.38;;
21758;SDS011;11041;50.854;20.580;2023-04-22T05:13:01;36.47;;;20.27;;
21758;SDS011;11041;50.854;20.580;2023-04-22T05:15:27;39.17;;;20.95;;
21758;SDS011;11041;50.854;20.580;2023-04-22T05:17:56;36.05;;;22.27;;
21758;SDS011;11041;50.854;20.580;2023-04-22T05:20:22;38.88;;;21.45;;
21758;SDS011;11041;50.854;20.580;2023-04-22T05:22:49;38.50;;;22.67;;
21758;SDS011;11041;50.854;20.580;2023-04-22T05:25:15;41.20;;;21.23;;
21758;SDS011;11041;50.854;20.580;2023-04-22T05:27:42;40.30;;;23.58;;
21758;SDS011;11041;50.854;20.580;2023-04-22T05:30:09;41.58;;;23.98;;
21758;SDS011;11041;50.854;20.580;2023-04-22T05:32:46;56.42;;;25.58;;
21758;SDS011;11041;50.854;20.580;2023-04-22T05:35:13;65.32;;;25.85;;
21758;SDS011;11041;50.854;20.580;2023-04-22T05:37:39;37.67;;;20.63;;
21758;SDS011;11041;50.854;20.580;2023-04-22T05:40:06;36.15;;;21.42;;
21758;SDS011;11041;50.854;20.580;2023-04-22T05:42:33;39.83;;;23.05;;
21758;SDS011;11041;50.854;20.580;2023-04-22T05:44:59;31.48;;;21.15;;
21758;SDS011;11041;50.854;20.580;2023-04-22T05:47:26;35.80;;;21.70;;
21758;SDS011;11041;50.854;20.580;2023-04-22T05:49:52;38.97;;;21.05;;
21758;SDS011;11041;50.854;20.580;2023-04-22T05:52:19;45.53;;;22.38;;
21758;SDS011;11041;50.854;20.580;2023-04-22T05:54:45;36.60;;;19.40;;
21758;SDS011;11041;50.854;20.580;2023-04-22T05:57:12;40.42;;;19.67;;
21758;SDS011;11041;50.854;20.580;2023-04-22T05:59:38;29.83;;;18.58;;
21758;SDS011;11041;50.854;20.580;2023-04-22T06:02:05;29.45;;;15.48;;
21758;SDS011;11041;50.854;20.580;2023-04-22T06:04:32;31.92;;;16.65;;
21758;SDS011;11041;50.854;20.580;2023-04-22T06:06:58;26.23;;;15.30;;
21758;SDS011;11041;50.854;20.580;2023-04-22T06:09:25;39.17;;;14.13;;
21758;SDS011;11041;50.854;20.580;2023-04-22T06:11:51;31.23;;;14.50;;
21758;SDS011;11041;50.854;20.580;2023-04-22T06:14:17;25.20;;;13.68;;
21758;SDS011;11041;50.854;20.580;2023-04-22T06:16:44;19.85;;;11.93;;
21758;SDS011;11041;50.854;20.580;2023-04-22T06:19:11;25.85;;;13.70;;
21758;SDS011;11041;50.854;20.580;2023-04-22T06:21:37;26.35;;;13.80;;
21758;SDS011;11041;50.854;20.580;2023-04-22T06:24:05;19.95;;;12.82;;
21758;SDS011;11041;50.854;20.580;2023-04-22T06:26:31;20.00;;;11.55;;
21758;SDS011;11041;50.854;20.580;2023-04-22T06:28:59;16.63;;;9.93;;
21758;SDS011;11041;50.854;20.580;2023-04-22T06:31:27;20.65;;;11.75;;
21758;SDS011;11041;50.854;20.580;2023-04-22T06:33:54;19.33;;;12.20;;
21758;SDS011;11041;50.854;20.580;2023-04-22T06:36:20;18.73;;;12.65;;
21758;SDS011;11041;50.854;20.580;2023-04-22T06:38:46;30.27;;;12.00;;
21758;SDS011;11041;50.854;20.580;2023-04-22T06:41:13;20.00;;;10.35;;
21758;SDS011;11041;50.854;20.580;2023-04-22T06:43:41;18.45;;;10.35;;
21758;SDS011;11041;50.854;20.580;2023-04-22T06:46:07;16.58;;;10.57;;
21758;SDS011;11041;50.854;20.580;2023-04-22T06:48:34;16.55;;;9.98;;
21758;SDS011;11041;50.854;20.580;2023-04-22T06:51:01;15.40;;;9.52;;
21758;SDS011;11041;50.854;20.580;2023-04-22T06:53:28;17.38;;;9.57;;
21758;SDS011;11041;50.854;20.580;2023-04-22T06:55:54;14.82;;;9.77;;
21758;SDS011;11041;50.854;20.580;2023-04-22T06:58:21;13.63;;;8.48;;
21758;SDS011;11041;50.854;20.580;2023-04-22T07:00:47;12.57;;;7.32;;
21758;SDS011;11041;50.854;20.580;2023-04-22T07:03:14;11.25;;;6.95;;
21758;SDS011;11041;50.854;20.580;2023-04-22T07:05:40;11.95;;;7.80;;
21758;SDS011;11041;50.854;20.580;2023-04-22T07:08:07;14.82;;;9.95;;
21758;SDS011;11041;50.854;20.580;2023-04-22T07:10:33;15.85;;;8.88;;
21758;SDS011;11041;50.854;20.580;2023-04-22T07:13:00;13.45;;;8.50;;
21758;SDS011;11041;50.854;20.580;2023-04-22T07:15:26;14.38;;;8.60;;
21758;SDS011;11041;50.854;20.580;2023-04-22T07:17:53;12.40;;;7.55;;
21758;SDS011;11041;50.854;20.580;2023-04-22T07:20:20;14.48;;;7.50;;
21758;SDS011;11041;50.854;20.580;2023-04-22T07:22:46;10.60;;;6.43;;
21758;SDS011;11041;50.854;20.580;2023-04-22T07:25:13;14.35;;;5.68;;
21758;SDS011;11041;50.854;20.580;2023-04-22T07:27:40;10.48;;;6.30;;
21758;SDS011;11041;50.854;20.580;2023-04-22T07:30:07;10.02;;;5.82;;
21758;SDS011;11041;50.854;20.580;2023-04-22T07:32:37;8.23;;;5.65;;
21758;SDS011;11041;50.854;20.580;2023-04-22T07:35:04;8.85;;;5.35;;
21758;SDS011;11041;50.854;20.580;2023-04-22T07:37:31;8.73;;;4.90;;
21758;SDS011;11041;50.854;20.580;2023-04-22T07:39:58;9.13;;;5.25;;
21758;SDS011;11041;50.854;20.580;2023-04-22T07:42:25;8.82;;;5.35;;
21758;SDS011;11041;50.854;20.580;2023-04-22T07:44:52;7.82;;;5.60;;
21758;SDS011;11041;50.854;20.580;2023-04-22T07:47:18;9.23;;;5.70;;
21758;SDS011;11041;50.854;20.580;2023-04-22T07:49:45;7.47;;;4.90;;
21758;SDS011;11041;50.854;20.580;2023-04-22T07:52:11;8.65;;;5.45;;
21758;SDS011;11041;50.854;20.580;2023-04-22T07:54:38;9.90;;;6.18;;
21758;SDS011;11041;50.854;20.580;2023-04-22T07:57:04;10.00;;;6.53;;
21758;SDS011;11041;50.854;20.580;2023-04-22T07:59:31;8.95;;;6.82;;
21758;SDS011;11041;50.854;20.580;2023-04-22T08:01:57;9.95;;;5.68;;
21758;SDS011;11041;50.854;20.580;2023-04-22T08:04:24;9.23;;;5.00;;
21758;SDS011;11041;50.854;20.580;2023-04-22T08:06:50;9.57;;;5.50;;
21758;SDS011;11041;50.854;20.580;2023-04-22T08:09:17;8.57;;;5.18;;
21758;SDS011;11041;50.854;20.580;2023-04-22T08:11:43;5.88;;;4.65;;
21758;SDS011;11041;50.854;20.580;2023-04-22T08:14:09;7.05;;;4.28;;
21758;SDS011;11041;50.854;20.580;2023-04-22T08:16:36;6.35;;;4.68;;
21758;SDS011;11041;50.854;20.580;2023-04-22T08:19:04;10.02;;;4.68;;
21758;SDS011;11041;50.854;20.580;2023-04-22T08:21:31;6.25;;;4.97;;
21758;SDS011;11041;50.854;20.580;2023-04-22T08:23:57;5.88;;;4.57;;
21758;SDS011;11041;50.854;20.580;2023-04-22T08:26:24;6.68;;;3.80;;
21758;SDS011;11041;50.854;20.580;2023-04-22T08:28:51;6.97;;;3.97;;
21758;SDS011;11041;50.854;20.580;2023-04-22T08:31:17;8.82;;;3.80;;
21758;SDS011;11041;50.854;20.580;2023-04-22T08:33:44;5.68;;;3.10;;
21758;SDS011;11041;50.854;20.580;2023-04-22T08:36:10;5.68;;;3.50;;
21758;SDS011;11041;50.854;20.580;2023-04-22T08:38:38;4.85;;;3.25;;
21758;SDS011;11041;50.854;20.580;2023-04-22T08:41:04;9.73;;;4.20;;
21758;SDS011;11041;50.854;20.580;2023-04-22T08:43:32;4.32;;;3.42;;
21758;SDS011;11041;50.854;20.580;2023-04-22T08:45:59;3.90;;;2.90;;
21758;SDS011;11041;50.854;20.580;2023-04-22T08:48:26;4.72;;;3.78;;
21758;SDS011;11041;50.854;20.580;2023-04-22T08:50:53;6.30;;;4.00;;
21758;SDS011;11041;50.854;20.580;2023-04-22T08:53:20;5.47;;;3.30;;
21758;SDS011;11041;50.854;20.580;2023-04-22T08:55:46;6.30;;;3.33;;
21758;SDS011;11041;50.854;20.580;2023-04-22T08:58:15;5.65;;;3.58;;
21758;SDS011;11041;50.854;20.580;2023-04-22T09:00:42;4.32;;;3.47;;
21758;SDS011;11041;50.854;20.580;2023-04-22T09:03:09;5.63;;;3.67;;
21758;SDS011;11041;50.854;20.580;2023-04-22T09:05:38;4.88;;;3.28;;
21758;SDS011;11041;50.854;20.580;2023-04-22T09:08:08;7.07;;;3.30;;
21758;SDS011;11041;50.854;20.580;2023-04-22T09:10:36;5.93;;;3.30;;
21758;SDS011;11041;50.854;20.580;2023-04-22T09:13:05;3.65;;;3.10;;
21758;SDS011;11041;50.854;20.580;2023-04-22T09:15:32;5.22;;;3.67;;
21758;SDS011;11041;50.854;20.580;2023-04-22T09:17:58;3.08;;;2.78;;
21758;SDS011;11041;50.854;20.580;2023-04-22T09:20:28;5.57;;;3.10;;
21758;SDS011;11041;50.854;20.580;2023-04-22T09:22:56;7.30;;;3.63;;
21758;SDS011;11041;50.854;20.580;2023-04-22T09:25:32;21.45;;;3.80;;
21758;SDS011;11041;50.854;20.580;2023-04-22T09:28:01;6.53;;;3.80;;
21758;SDS011;11041;50.854;20.580;2023-04-22T09:30:29;9.55;;;4.05;;
21758;SDS011;11041;50.854;20.580;2023-04-22T09:33:00;4.10;;;3.70;;
21758;SDS011;11041;50.854;20.580;2023-04-22T09:35:30;5.30;;;4.18;;
21758;SDS011;11041;50.854;20.580;2023-04-22T09:38:00;8.45;;;3.72;;
21758;SDS011;11041;50.854;20.580;2023-04-22T09:40:30;4.97;;;3.95;;
21758;SDS011;11041;50.854;20.580;2023-04-22T09:43:01;5.53;;;3.90;;
21758;SDS011;11041;50.854;20.580;2023-04-22T09:45:38;6.57;;;3.50;;
21758;SDS011;11041;50.854;20.580;2023-04-22T09:48:09;7.05;;;3.90;;
21758;SDS011;11041;50.854;20.580;2023-04-22T09:50:38;4.70;;;3.53;;
21758;SDS011;11041;50.854;20.580;2023-04-22T09:53:10;6.35;;;3.53;;
21758;SDS011;11041;50.854;20.580;2023-04-22T09:55:48;5.28;;;3.38;;
21758;SDS011;11041;50.854;20.580;2023-04-22T09:58:19;5.03;;;3.22;;
21758;SDS011;11041;50.854;20.580;2023-04-22T10:00:52;8.63;;;3.40;;
21758;SDS011;11041;50.854;20.580;2023-04-22T10:03:21;4.38;;;3.28;;
21758;SDS011;11041;50.854;20.580;2023-04-22T10:05:48;6.22;;;3.58;;
21758;SDS011;11041;50.854;20.580;2023-04-22T10:08:15;3.50;;;3.20;;
21758;SDS011;11041;50.854;20.580;2023-04-22T10:10:42;5.45;;;3.78;;
21758;SDS011;11041;50.854;20.580;2023-04-22T10:13:09;7.32;;;3.40;;
21758;SDS011;11041;50.854;20.580;2023-04-22T10:15:40;4.47;;;3.47;;
21758;SDS011;11041;50.854;20.580;2023-04-22T10:18:13;4.53;;;3.40;;
21758;SDS011;11041;50.854;20.580;2023-04-22T10:20:49;4.53;;;3.58;;
21758;SDS011;11041;50.854;20.580;2023-04-22T10:23:19;6.82;;;3.70;;
21758;SDS011;11041;50.854;20.580;2023-04-22T10:25:49;7.90;;;3.83;;
21758;SDS011;11041;50.854;20.580;2023-04-22T10:28:20;5.53;;;3.83;;
21758;SDS011;11041;50.854;20.580;2023-04-22T10:30:49;7.95;;;3.65;;
21758;SDS011;11041;50.854;20.580;2023-04-22T10:38:40;6.47;;;3.70;;
21758;SDS011;11041;50.854;20.580;2023-04-22T10:41:32;4.75;;;3.15;;
21758;SDS011;11041;50.854;20.580;2023-04-22T10:44:01;6.90;;;3.60;;
21758;SDS011;11041;50.854;20.580;2023-04-22T10:51:49;12.38;;;3.45;;
21758;SDS011;11041;50.854;20.580;2023-04-22T10:59:45;3.97;;;3.38;;
21758;SDS011;11041;50.854;20.580;2023-04-22T11:02:20;5.00;;;3.47;;
21758;SDS011;11041;50.854;20.580;2023-04-22T11:04:49;6.40;;;3.90;;
21758;SDS011;11041;50.854;20.580;2023-04-22T11:09:59;3.75;;;2.80;;
21758;SDS011;11041;50.854;20.580;2023-04-22T11:15:09;4.50;;;3.05;;
21758;SDS011;11041;50.854;20.580;2023-04-22T11:17:55;6.05;;;3.47;;
21758;SDS011;11041;50.854;20.580;2023-04-22T11:20:22;15.05;;;3.75;;
21758;SDS011;11041;50.854;20.580;2023-04-22T11:25:20;6.60;;;3.15;;
21758;SDS011;11041;50.854;20.580;2023-04-22T11:27:48;5.75;;;3.35;;
21758;SDS011;11041;50.854;20.580;2023-04-22T11:30:16;4.57;;;3.17;;
21758;SDS011;11041;50.854;20.580;2023-04-22T11:49:57;4.38;;;3.00;;
21758;SDS011;11041;50.854;20.580;2023-04-22T12:03:56;8.77;;;2.90;;
21758;SDS011;11041;50.854;20.580;2023-04-22T12:14:31;3.42;;;2.50;;
21758;SDS011;11041;50.854;20.580;2023-04-22T12:20:48;5.57;;;3.00;;
21758;SDS011;11041;50.854;20.580;2023-04-22T12:23:26;4.13;;;3.47;;
21758;SDS011;11041;50.854;20.580;2023-04-22T12:27:17;6.82;;;3.28;;
21758;SDS011;11041;50.854;20.580;2023-04-22T12:29:56;6.05;;;2.80;;
21758;SDS011;11041;50.854;20.580;2023-04-22T12:32:24;3.42;;;2.85;;
21758;SDS011;11041;50.854;20.580;2023-04-22T12:34:54;8.70;;;3.63;;
21758;SDS011;11041;50.854;20.580;2023-04-22T12:37:20;4.68;;;3.08;;
21758;SDS011;11041;50.854;20.580;2023-04-22T12:39:47;8.35;;;3.80;;
21758;SDS011;11041;50.854;20.580;2023-04-22T12:42:13;3.88;;;3.20;;
21758;SDS011;11041;50.854;20.580;2023-04-22T12:44:39;7.60;;;3.17;;
21758;SDS011;11041;50.854;20.580;2023-04-22T12:47:07;6.03;;;2.88;;
21758;SDS011;11041;50.854;20.580;2023-04-22T12:49:34;6.97;;;2.83;;
21758;SDS011;11041;50.854;20.580;2023-04-22T12:52:03;12.10;;;3.42;;
21758;SDS011;11041;50.854;20.580;2023-04-22T12:54:42;5.78;;;3.22;;
21758;SDS011;11041;50.854;20.580;2023-04-22T13:00:28;6.78;;;3.10;;
21758;SDS011;11041;50.854;20.580;2023-04-22T13:06:26;5.93;;;3.40;;
21758;SDS011;11041;50.854;20.580;2023-04-22T13:08:53;5.60;;;3.10;;
21758;SDS011;11041;50.854;20.580;2023-04-22T13:11:29;4.25;;;3.20;;
21758;SDS011;11041;50.854;20.580;2023-04-22T13:13:55;5.22;;;3.00;;
21758;SDS011;11041;50.854;20.580;2023-04-22T13:16:25;4.97;;;3.00;;
21758;SDS011;11041;50.854;20.580;2023-04-22T13:19:28;7.57;;;3.70;;
21758;SDS011;11041;50.854;20.580;2023-04-22T13:22:56;3.50;;;3.05;;
21758;SDS011;11041;50.854;20.580;2023-04-22T13:25:42;8.00;;;3.80;;
21758;SDS011;11041;50.854;20.580;2023-04-22T13:28:18;5.25;;;3.80;;
21758;SDS011;11041;50.854;20.580;2023-04-22T13:30:55;4.32;;;3.92;;
21758;SDS011;11041;50.854;20.580;2023-04-22T13:33:23;5.15;;;3.25;;
21758;SDS011;11041;50.854;20.580;2023-04-22T13:35:55;5.53;;;3.83;;
21758;SDS011;11041;50.854;20.580;2023-04-22T13:38:26;6.22;;;4.70;;
21758;SDS011;11041;50.854;20.580;2023-04-22T13:41:03;5.93;;;3.30;;
21758;SDS011;11041;50.854;20.580;2023-04-22T13:43:51;8.55;;;4.20;;
21758;SDS011;11041;50.854;20.580;2023-04-22T13:46:32;5.68;;;3.45;;
21758;SDS011;11041;50.854;20.580;2023-04-22T13:48:59;6.07;;;3.50;;
21758;SDS011;11041;50.854;20.580;2023-04-22T13:52:18;14.55;;;10.80;;
21758;SDS011;11041;50.854;20.580;2023-04-22T13:55:52;23.20;;;6.20;;
21758;SDS011;11041;50.854;20.580;2023-04-22T13:58:21;6.53;;;4.53;;
21758;SDS011;11041;50.854;20.580;2023-04-22T14:01:01;5.13;;;3.60;;
21758;SDS011;11041;50.854;20.580;2023-04-22T14:04:04;12.85;;;9.75;;
21758;SDS011;11041;50.854;20.580;2023-04-22T14:06:31;9.98;;;4.75;;
21758;SDS011;11041;50.854;20.580;2023-04-22T14:13:19;7.70;;;4.07;;
21758;SDS011;11041;50.854;20.580;2023-04-22T14:19:50;7.90;;;3.63;;
21758;SDS011;11041;50.854;20.580;2023-04-22T14:22:19;6.65;;;3.42;;
21758;SDS011;11041;50.854;20.580;2023-04-22T14:24:46;6.75;;;3.60;;
21758;SDS011;11041;50.854;20.580;2023-04-22T14:27:13;8.68;;;3.97;;
21758;SDS011;11041;50.854;20.580;2023-04-22T14:29:40;4.45;;;3.42;;
21758;SDS011;11041;50.854;20.580;2023-04-22T14:32:06;4.30;;;3.10;;
21758;SDS011;11041;50.854;20.580;2023-04-22T14:34:33;5.60;;;3.50;;
21758;SDS011;11041;50.854;20.580;2023-04-22T14:36:59;12.45;;;3.80;;
21758;SDS011;11041;50.854;20.580;2023-04-22T14:39:26;4.80;;;3.55;;
21758;SDS011;11041;50.854;20.580;2023-04-22T14:41:53;3.45;;;3.15;;
21758;SDS011;11041;50.854;20.580;2023-04-22T14:44:21;3.83;;;3.15;;
21758;SDS011;11041;50.854;20.580;2023-04-22T14:46:48;5.93;;;3.10;;
21758;SDS011;11041;50.854;20.580;2023-04-22T14:49:15;5.75;;;3.10;;
21758;SDS011;11041;50.854;20.580;2023-04-22T14:51:41;4.80;;;3.20;;
21758;SDS011;11041;50.854;20.580;2023-04-22T14:54:08;10.82;;;3.45;;
21758;SDS011;11041;50.854;20.580;2023-04-22T14:56:34;7.72;;;3.78;;
21758;SDS011;11041;50.854;20.580;2023-04-22T14:59:01;7.40;;;3.90;;
21758;SDS011;11041;50.854;20.580;2023-04-22T15:01:28;13.80;;;4.72;;
21758;SDS011;11041;50.854;20.580;2023-04-22T15:03:57;4.63;;;3.35;;
21758;SDS011;11041;50.854;20.580;2023-04-22T15:06:24;6.47;;;3.30;;
21758;SDS011;11041;50.854;20.580;2023-04-22T15:08:52;6.32;;;3.10;;
21758;SDS011;11041;50.854;20.580;2023-04-22T15:11:20;5.82;;;3.20;;
21758;SDS011;11041;50.854;20.580;2023-04-22T15:13:47;3.90;;;3.10;;
21758;SDS011;11041;50.854;20.580;2023-04-22T15:16:14;5.38;;;3.08;;
21758;SDS011;11041;50.854;20.580;2023-04-22T15:18:41;4.82;;;2.92;;
21758;SDS011;11041;50.854;20.580;2023-04-22T15:21:07;5.72;;;3.00;;
21758;SDS011;11041;50.854;20.580;2023-04-22T15:23:35;3.22;;;2.70;;
21758;SDS011;11041;50.854;20.580;2023-04-22T15:26:01;3.28;;;2.88;;
21758;SDS011;11041;50.854;20.580;2023-04-22T15:28:28;4.95;;;3.03;;
21758;SDS011;11041;50.854;20.580;2023-04-22T15:30:54;4.50;;;3.17;;
21758;SDS011;11041;50.854;20.580;2023-04-22T15:33:21;3.85;;;2.75;;
21758;SDS011;11041;50.854;20.580;2023-04-22T15:35:47;4.82;;;2.90;;
21758;SDS011;11041;50.854;20.580;2023-04-22T15:38:15;4.75;;;3.08;;
21758;SDS011;11041;50.854;20.580;2023-04-22T15:40:42;4.03;;;3.10;;
21758;SDS011;11041;50.854;20.580;2023-04-22T15:43:08;5.50;;;3.55;;
21758;SDS011;11041;50.854;20.580;2023-04-22T15:45:35;3.80;;;2.97;;
21758;SDS011;11041;50.854;20.580;2023-04-22T15:48:01;6.18;;;3.10;;
21758;SDS011;11041;50.854;20.580;2023-04-22T15:50:30;4.45;;;3.20;;